Sidney, IA

8:38 AM CDT on July 22, 2017 (GMT -0500)
North Side of Town | | Change Station
Active Advisory: Excessive Heat Warning

Elev 1007 ft 40.82 °N, 95.75 °W | Updated 39 seconds ago

Partly Cloudy
Partly Cloudy
81.8 °F
Feels Like 88 °F
N
1.0
Wind Variable Wind from NNE
Gusts 3.0 mph

Today
High -- | Low -- °F
--% Chance of Precip.
Yesterday
High -- | Low -- °F
Precip. -- in
Pressure 29.80 in
Visibility 10.0 miles
Clouds Clear
Heat Index 88 °F
Dew Point 75 °F
Humidity 79%
Rainfall 0.00 in
Snow Depth Not available.
6:10 AM 8:47 PM
Waning Crescent, 1% visible
METAR KSDA 221335Z AUTO 00000KT 10SM CLR 28/23 A2980 RMK AO2
Pressure 29.80 in
Visibility 10.0 miles
Clouds Clear
Heat Index 88 °F
Dew Point 75 °F
Humidity 79%
Rainfall 0.00 in
Snow Depth Not available.
6:10 AM 8:47 PM
Waning Crescent, 1% visible
METAR KSDA 221335Z AUTO 00000KT 10SM CLR 28/23 A2980 RMK AO2

Get Your Daily Forecast Email!

Thanks for signing up!

Be on the lookout for a verification email in your inbox.

You'll start receiving severe weather alerts in your inbox..

×

10-Day Weather Forecast

Almanac

Astronomy

Jul. 22, 2017 Rise Set
Actual Time
Civil Twilight
Nautical Twilight
Astronomical Twilight
Moon
Length of Visible Light
Length of Day
Tomorrow will be .
, % of the Moon is Illuminated

Today's Extremes

State Highs State Lows

Community

WunderPhotos

Category 6

Welcome to Category 6. This is the collective home for Weather Underground's featured writeups by Dr. Jeff Masters (right), Bob Henson (left), Chris Burt, and other regular contributors.

Nearby

Air Quality

  Air Quality AQ Index Pollutant
Not available.

Snow Depth

Station Depth Elevation

Earthquake Activity

City Distance Mag. Time & Date
Minimum magnitude displayed is 2.5.

Coastal Water Temperatures

Place Temperature

Stations

Nearby Weather Stations

Station Location Temp. Windchill Dew Point Humidity Wind Precip. Elev Updated Type
                   

Watches & Warnings

Excessive Heat Warning
Issued: 3:38 AM CDT Jul. 22, 2017 – National Weather Service

... Excessive heat warning remains in effect until 7 PM CDT this
evening...

* temperature... heat indices should reach the 105 to 115 degree
range again this afternoon into the early evening.

* Impacts... prolonged exposure to heat and humidity may lead to
heat-related illness if precautions are not taken.

Precautionary/preparedness actions...

An excessive heat warning means that a prolonged period of
dangerously hot temperatures will occur. The combination of hot
temperatures and high humidity will combine to create a dangerous
situation in which heat illnesses are likely. Drink plenty of
fluids, stay in an air-conditioned room, stay out of the sun, and
check up on relatives and neighbors. Take extra precautions if
you work or spend time outside. When possible, reschedule
strenuous activities to early morning or evening.

Young children and pets should never be left unattended in
vehicles under any circumstances.